Time;durP1;ratioP1;P1;durP2;ratioP2;P2;SDS_P1;SDS_P2;PMS_P1;PMS_P2;Temp;Humidity;BMP_temperature;BMP_pressure;BME280_temperature;BME280_humidity;BME280_pressure;Samples;Min_cycle;Max_cycle;Signal;HPM_P1;HPM_P2
2021/03/12 00:01:10;;;;;;;0.60;0.40;;;;;;;;;;5000774;28;20695;-84
2021/03/12 00:04:15;;;;;;;0.70;0.40;;;;;;;;;;5011699;28;21105;-84
2021/03/12 00:07:22;;;;;;;2.07;0.50;;;;;;;;;;5001153;28;20177;-84
2021/03/12 00:10:27;;;;;;;1.07;0.50;;;;;;;;;;5022854;28;20615;-84
2021/03/12 00:13:33;;;;;;;0.77;0.50;;;;;;;;;;5023597;28;20884;-84
2021/03/12 00:16:38;;;;;;;0.97;0.40;;;;;;;;;;5011903;28;20516;-84
2021/03/12 00:19:42;;;;;;;1.97;0.53;;;;;;;;;;5022582;28;20607;-84
2021/03/12 00:22:49;;;;;;;3.07;0.57;;;;;;;;;;5000635;28;20599;-84
2021/03/12 00:25:53;;;;;;;3.27;0.70;;;;;;;;;;5000185;28;20197;-84
2021/03/12 00:28:58;;;;;;;1.20;0.50;;;;;;;;;;5000159;28;20603;-85
2021/03/12 00:32:04;;;;;;;1.00;0.50;;;;;;;;;;5012209;28;20947;-84
2021/03/12 00:35:09;;;;;;;0.80;0.50;;;;;;;;;;5088318;22;20231;-84
2021/03/12 00:38:14;;;;;;;1.77;0.57;;;;;;;;;;5052868;28;20585;-85
2021/03/12 00:41:21;;;;;;;1.43;0.70;;;;;;;;;;5033208;28;21143;-84
2021/03/12 00:44:31;;;;;;;1.90;0.43;;;;;;;;;;5023518;28;20623;-84
2021/03/12 00:47:36;;;;;;;1.33;0.40;;;;;;;;;;5012703;28;20595;-84
2021/03/12 00:50:42;;;;;;;2.20;0.43;;;;;;;;;;5035474;28;20611;-84
2021/03/12 00:53:53;;;;;;;0.77;0.40;;;;;;;;;;5033930;28;20221;-84
2021/03/12 00:56:58;;;;;;;1.00;0.33;;;;;;;;;;5001744;28;20861;-85
2021/03/12 01:00:11;;;;;;;0.93;0.50;;;;;;;;;;5023970;28;20193;-84
2021/03/12 01:03:19;;;;;;;0.87;0.40;;;;;;;;;;5034698;28;20192;-84
2021/03/12 01:06:33;;;;;;;1.90;0.30;;;;;;;;;;5002482;28;20548;-85
2021/03/12 01:09:41;;;;;;;0.70;0.50;;;;;;;;;;5001544;28;20536;-84
2021/03/12 01:12:47;;;;;;;1.40;0.40;;;;;;;;;;5012390;28;20181;-84
2021/03/12 01:15:52;;;;;;;0.77;0.40;;;;;;;;;;5023098;28;20603;-85
2021/03/12 01:19:06;;;;;;;0.90;0.50;;;;;;;;;;5011822;28;20596;-85
2021/03/12 01:22:16;;;;;;;2.00;0.50;;;;;;;;;;5034629;28;20603;-84
2021/03/12 01:25:24;;;;;;;0.90;0.40;;;;;;;;;;5011721;28;20627;-85
2021/03/12 01:28:31;;;;;;;0.93;0.43;;;;;;;;;;5023367;28;20627;-84
2021/03/12 01:31:38;;;;;;;0.70;0.40;;;;;;;;;;5000760;28;20540;-85
2021/03/12 01:34:51;;;;;;;1.83;0.40;;;;;;;;;;5001410;28;20651;-85
2021/03/12 01:37:58;;;;;;;1.20;0.57;;;;;;;;;;5033610;28;20224;-84
2021/03/12 01:41:07;;;;;;;1.03;0.40;;;;;;;;;;5011953;28;20548;-84
2021/03/12 01:45:11;;;;;;;3.17;0.60;;;;;;;;;;5035408;28;21181;-85
2021/03/12 01:48:24;;;;;;;1.83;0.43;;;;;;;;;;5000938;28;20584;-85
2021/03/12 01:51:38;;;;;;;1.43;0.60;;;;;;;;;;5011875;28;20540;-85
2021/03/12 02:10:43;;;;;;;1.33;0.30;;;;;;;;;;4954647;28;20618;-85
2021/03/12 02:13:58;;;;;;;0.37;0.30;;;;;;;;;;4968745;28;20578;-85
2021/03/12 02:17:14;;;;;;;0.63;0.40;;;;;;;;;;4944247;29;20544;-85
2021/03/12 02:20:39;;;;;;;0.70;0.40;;;;;;;;;;4935314;29;20580;-85
2021/03/12 02:23:59;;;;;;;0.40;0.40;;;;;;;;;;4963680;23;21032;-70
2021/03/12 02:27:07;;;;;;;0.43;0.30;;;;;;;;;;4935124;29;20552;-70
2021/03/12 02:30:16;;;;;;;1.17;0.50;;;;;;;;;;4946837;29;20620;-70
2021/03/12 02:33:27;;;;;;;0.93;0.30;;;;;;;;;;4935062;29;20552;-69
2021/03/12 02:36:38;;;;;;;2.07;0.60;;;;;;;;;;4935833;29;20545;-70
2021/03/12 02:39:51;;;;;;;1.70;0.40;;;;;;;;;;4934840;29;21142;-69
2021/03/12 02:42:55;;;;;;;0.70;0.40;;;;;;;;;;4935779;29;20552;-70
2021/03/12 02:45:59;;;;;;;0.67;0.40;;;;;;;;;;4934848;29;20560;-69
2021/03/12 02:49:07;;;;;;;0.37;0.37;;;;;;;;;;4935159;29;20583;-70
2021/03/12 02:52:13;;;;;;;1.50;0.40;;;;;;;;;;4934627;29;20545;-69
2021/03/12 02:55:19;;;;;;;0.73;0.40;;;;;;;;;;4936306;29;20877;-69
2021/03/12 02:58:35;;;;;;;1.10;0.37;;;;;;;;;;4939093;29;20600;-69
2021/03/12 03:01:39;;;;;;;1.20;0.57;;;;;;;;;;4927012;29;21194;-70
2021/03/12 03:05:05;;;;;;;0.40;0.40;;;;;;;;;;4938105;29;20564;-69
2021/03/12 03:08:19;;;;;;;2.73;0.50;;;;;;;;;;4938058;29;20557;-69
2021/03/12 03:11:26;;;;;;;3.20;0.70;;;;;;;;;;4939054;29;20628;-70
2021/03/12 03:14:31;;;;;;;1.50;0.57;;;;;;;;;;4938064;29;20888;-69
2021/03/12 03:17:38;;;;;;;0.50;0.30;;;;;;;;;;4937735;29;20544;-69
2021/03/12 03:20:43;;;;;;;0.93;0.50;;;;;;;;;;4937755;29;20627;-70
2021/03/12 03:23:47;;;;;;;0.77;0.30;;;;;;;;;;4937581;29;20611;-70
2021/03/12 03:26:53;;;;;;;1.20;0.60;;;;;;;;;;4937586;29;21075;-70
2021/03/12 03:29:57;;;;;;;1.23;0.50;;;;;;;;;;4937715;29;20545;-70
2021/03/12 03:33:02;;;;;;;4.00;0.90;;;;;;;;;;4937962;29;20548;-70
2021/03/12 03:36:08;;;;;;;0.63;0.50;;;;;;;;;;4937672;29;20549;-70
2021/03/12 03:39:14;;;;;;;3.10;0.50;;;;;;;;;;4926364;29;20647;-70
2021/03/12 03:42:19;;;;;;;1.00;0.50;;;;;;;;;;4937527;29;20896;-70
2021/03/12 03:45:26;;;;;;;0.67;0.50;;;;;;;;;;4937207;29;20549;-70
2021/03/12 03:48:39;;;;;;;1.03;0.40;;;;;;;;;;4937470;29;20545;-70
2021/03/12 03:51:45;;;;;;;0.70;0.40;;;;;;;;;;4937296;29;21188;-70
2021/03/12 03:54:56;;;;;;;1.83;0.50;;;;;;;;;;4938108;29;20548;-70
2021/03/12 03:58:01;;;;;;;1.43;0.50;;;;;;;;;;4936894;29;20611;-70
2021/03/12 04:01:08;;;;;;;3.30;0.50;;;;;;;;;;4926370;29;20635;-70
2021/03/12 04:04:16;;;;;;;2.67;0.53;;;;;;;;;;4937174;29;20549;-70
2021/03/12 04:07:22;;;;;;;2.23;0.70;;;;;;;;;;4936066;29;20541;-70
2021/03/12 04:10:31;;;;;;;0.40;0.40;;;;;;;;;;4936955;29;20632;-69
2021/03/12 04:13:37;;;;;;;2.27;0.70;;;;;;;;;;4936924;29;21158;-70
2021/03/12 04:16:41;;;;;;;2.57;0.80;;;;;;;;;;4925991;29;20608;-70
2021/03/12 04:19:47;;;;;;;1.97;0.60;;;;;;;;;;4936746;29;20596;-70
2021/03/12 04:22:52;;;;;;;1.90;0.50;;;;;;;;;;4936633;29;20620;-70
2021/03/12 04:25:59;;;;;;;2.23;0.67;;;;;;;;;;4936766;29;20549;-70
2021/03/12 04:29:05;;;;;;;0.73;0.60;;;;;;;;;;4936978;29;20541;-70
2021/03/12 04:32:13;;;;;;;0.97;0.50;;;;;;;;;;4936679;29;20560;-70
2021/03/12 04:35:20;;;;;;;2.00;0.60;;;;;;;;;;4936328;29;20549;-70
2021/03/12 04:38:25;;;;;;;0.90;0.60;;;;;;;;;;4936151;29;20647;-70
2021/03/12 04:41:30;;;;;;;0.57;0.50;;;;;;;;;;4936088;29;20635;-70
2021/03/12 04:44:38;;;;;;;3.23;0.50;;;;;;;;;;4936416;29;20552;-70
2021/03/12 04:47:44;;;;;;;1.83;0.80;;;;;;;;;;4936347;29;20545;-70
2021/03/12 04:50:49;;;;;;;0.90;0.60;;;;;;;;;;4937045;29;20623;-70
2021/03/12 04:53:53;;;;;;;0.80;0.60;;;;;;;;;;4925090;29;20556;-70
2021/03/12 04:56:58;;;;;;;2.90;0.70;;;;;;;;;;4935926;29;21174;-70
2021/03/12 05:00:05;;;;;;;1.40;0.50;;;;;;;;;;4934328;29;20612;-70
2021/03/12 05:03:17;;;;;;;1.80;0.60;;;;;;;;;;4924338;29;20599;-70
2021/03/12 05:06:25;;;;;;;1.30;0.53;;;;;;;;;;4936213;29;20548;-70
2021/03/12 05:09:40;;;;;;;1.87;0.70;;;;;;;;;;4925996;29;20553;-70
2021/03/12 05:12:46;;;;;;;2.27;0.80;;;;;;;;;;4931351;29;21163;-70
2021/03/12 05:15:50;;;;;;;2.40;0.63;;;;;;;;;;4910672;29;20621;-70
2021/03/12 05:18:55;;;;;;;1.00;0.50;;;;;;;;;;4916511;29;20656;-70
2021/03/12 05:22:02;;;;;;;1.03;0.70;;;;;;;;;;4935478;29;20652;-70
2021/03/12 05:25:10;;;;;;;1.77;0.70;;;;;;;;;;4935787;29;20881;-70
2021/03/12 05:28:15;;;;;;;4.40;1.10;;;;;;;;;;4935394;29;20608;-69
2021/03/12 05:31:22;;;;;;;8.70;0.63;;;;;;;;;;4935257;29;20627;-70
2021/03/12 05:34:27;;;;;;;1.73;0.50;;;;;;;;;;4916650;29;21069;-70
2021/03/12 05:37:32;;;;;;;1.60;0.73;;;;;;;;;;4927647;29;20580;-70
2021/03/12 05:40:39;;;;;;;1.13;0.70;;;;;;;;;;4916237;29;20652;-70
2021/03/12 05:43:44;;;;;;;1.67;0.57;;;;;;;;;;4916161;29;20566;-70
2021/03/12 05:46:49;;;;;;;1.10;0.60;;;;;;;;;;4928707;29;20588;-70
2021/03/12 05:49:55;;;;;;;2.27;0.70;;;;;;;;;;4935201;29;20536;-70
2021/03/12 05:53:00;;;;;;;2.40;0.70;;;;;;;;;;4935192;29;20552;-70
2021/03/12 05:56:08;;;;;;;1.83;0.87;;;;;;;;;;4935212;29;20548;-70
2021/03/12 05:59:28;;;;;;;3.73;2.10;;;;;;;;;;4935120;29;20592;-70
2021/03/12 06:02:33;;;;;;;4.03;1.27;;;;;;;;;;4935165;29;20596;-70
2021/03/12 06:05:37;;;;;;;3.10;0.93;;;;;;;;;;4935188;29;20548;-70
2021/03/12 06:08:42;;;;;;;2.83;0.70;;;;;;;;;;4934964;29;20564;-69
2021/03/12 06:11:51;;;;;;;5.37;1.00;;;;;;;;;;4935065;29;20972;-70
2021/03/12 06:14:59;;;;;;;2.63;0.70;;;;;;;;;;4934965;29;20599;-70
2021/03/12 06:18:25;;;;;;;1.77;1.47;;;;;;;;;;4934956;29;20563;-70
2021/03/12 06:21:49;;;;;;;1.90;0.90;;;;;;;;;;4934844;29;20616;-70
2021/03/12 06:25:26;;;;;;;5.20;3.47;;;;;;;;;;4935937;29;20548;-70
2021/03/12 06:28:45;;;;;;;8.67;3.47;;;;;;;;;;4935553;29;20901;-70
2021/03/12 06:32:02;;;;;;;6.70;3.80;;;;;;;;;;4919657;29;20624;-70
2021/03/12 06:35:36;;;;;;;6.70;3.30;;;;;;;;;;4920678;29;20545;-70
2021/03/12 06:38:59;;;;;;;3.87;1.83;;;;;;;;;;4920041;29;20565;-70
2021/03/12 06:42:35;;;;;;;5.33;3.50;;;;;;;;;;4920209;29;20557;-70
2021/03/12 06:45:41;;;;;;;2.07;1.00;;;;;;;;;;4919281;29;20541;-70
2021/03/12 06:48:45;;;;;;;1.80;0.90;;;;;;;;;;4919528;29;20545;-70
2021/03/12 06:52:04;;;;;;;5.13;1.07;;;;;;;;;;4919145;29;20220;-70
2021/03/12 06:55:12;;;;;;;1.73;0.77;;;;;;;;;;4919407;29;20193;-70
2021/03/12 06:58:32;;;;;;;3.73;1.10;;;;;;;;;;4919273;29;20600;-70
2021/03/12 07:02:03;;;;;;;3.63;0.70;;;;;;;;;;4919038;29;20225;-70
2021/03/12 07:05:12;;;;;;;1.83;1.07;;;;;;;;;;4919272;29;20193;-70
2021/03/12 07:08:40;;;;;;;5.10;0.90;;;;;;;;;;4919754;29;20518;-70
2021/03/12 07:12:05;;;;;;;3.40;0.80;;;;;;;;;;4919046;29;20564;-70
2021/03/12 07:15:20;;;;;;;2.73;0.87;;;;;;;;;;4908266;29;20184;-70
2021/03/12 07:18:45;;;;;;;0.73;0.50;;;;;;;;;;4918979;29;20189;-70
2021/03/12 07:21:57;;;;;;;2.57;0.97;;;;;;;;;;4918591;29;20212;-70
2021/03/12 07:25:07;;;;;;;3.43;1.00;;;;;;;;;;4918936;29;20189;-70
2021/03/12 07:28:15;;;;;;;2.07;0.70;;;;;;;;;;4918552;29;20545;-70
2021/03/12 07:31:41;;;;;;;3.03;0.70;;;;;;;;;;4919326;29;20221;-70
2021/03/12 07:34:50;;;;;;;4.20;0.60;;;;;;;;;;4919020;29;20185;-70
2021/03/12 07:38:07;;;;;;;2.40;0.60;;;;;;;;;;4918343;29;20201;-70
2021/03/12 07:41:16;;;;;;;3.37;0.80;;;;;;;;;;4918621;29;20224;-70
2021/03/12 07:44:50;;;;;;;5.27;0.83;;;;;;;;;;4924293;29;20185;-70
2021/03/12 07:48:14;;;;;;;1.47;0.63;;;;;;;;;;4918226;29;20185;-70
2021/03/12 07:51:46;;;;;;;3.00;0.70;;;;;;;;;;4910502;29;20232;-70
2021/03/12 07:54:53;;;;;;;1.97;0.70;;;;;;;;;;4918377;29;20538;-71
2021/03/12 07:58:08;;;;;;;3.47;0.90;;;;;;;;;;4918306;29;20185;-70
2021/03/12 08:01:48;;;;;;;9.40;3.60;;;;;;;;;;4917958;29;20707;-70
2021/03/12 08:04:52;;;;;;;2.90;0.87;;;;;;;;;;4907426;29;20185;-70
2021/03/12 08:08:35;;;;;;;3.67;1.10;;;;;;;;;;4918012;29;20205;-70
2021/03/12 08:11:53;;;;;;;3.97;1.43;;;;;;;;;;4917847;29;20224;-70
2021/03/12 08:15:25;;;;;;;2.50;0.70;;;;;;;;;;4918761;29;20185;-70
2021/03/12 08:18:36;;;;;;;5.80;1.30;;;;;;;;;;4917957;29;20185;-70
2021/03/12 08:22:27;;;;;;;4.10;1.20;;;;;;;;;;4918683;29;20200;-70
2021/03/12 08:25:40;;;;;;;2.30;1.00;;;;;;;;;;4907618;29;20193;-70
2021/03/12 08:29:34;;;;;;;2.23;0.77;;;;;;;;;;4923432;29;20209;-70
2021/03/12 08:32:43;;;;;;;2.47;1.00;;;;;;;;;;4917392;29;20189;-70
2021/03/12 08:36:04;;;;;;;4.00;1.33;;;;;;;;;;4917917;29;20514;-70
2021/03/12 08:39:29;;;;;;;2.73;1.30;;;;;;;;;;4918035;29;20182;-70
2021/03/12 08:43:03;;;;;;;3.53;1.17;;;;;;;;;;4918331;29;20185;-70
2021/03/12 08:46:26;;;;;;;1.60;0.70;;;;;;;;;;4917205;29;20522;-70
2021/03/12 08:49:31;;;;;;;2.80;1.90;;;;;;;;;;4917432;29;20247;-70
2021/03/12 08:52:36;;;;;;;2.23;0.80;;;;;;;;;;4916527;29;20637;-70
2021/03/12 08:56:01;;;;;;;2.80;0.90;;;;;;;;;;4917517;29;20192;-70
2021/03/12 08:59:15;;;;;;;4.60;1.03;;;;;;;;;;4906619;29;20545;-70
2021/03/12 09:02:48;;;;;;;3.27;0.80;;;;;;;;;;4923359;29;20189;-70
2021/03/12 09:06:10;;;;;;;5.00;1.37;;;;;;;;;;4951794;23;20235;-73
2021/03/12 09:09:33;;;;;;;2.83;1.20;;;;;;;;;;4935729;29;20635;-73
2021/03/12 09:12:53;;;;;;;3.80;1.27;;;;;;;;;;4916998;29;20185;-73
2021/03/12 09:16:04;;;;;;;1.80;0.70;;;;;;;;;;4916935;29;20185;-73
2021/03/12 09:19:13;;;;;;;2.13;0.90;;;;;;;;;;4935275;29;20560;-73
2021/03/12 09:22:54;;;;;;;2.50;1.00;;;;;;;;;;4936598;29;20532;-73
2021/03/12 09:26:03;;;;;;;5.57;1.03;;;;;;;;;;4935748;29;20188;-73
2021/03/12 09:29:08;;;;;;;1.87;0.60;;;;;;;;;;4935475;29;20195;-73
2021/03/12 09:32:14;;;;;;;5.03;1.10;;;;;;;;;;4935396;29;20532;-73
2021/03/12 09:35:26;;;;;;;5.13;0.80;;;;;;;;;;4935602;29;20204;-73
2021/03/12 09:38:38;;;;;;;3.90;0.63;;;;;;;;;;4935837;29;20180;-73
2021/03/12 09:41:51;;;;;;;1.97;0.70;;;;;;;;;;4935242;29;20236;-74
2021/03/12 09:44:56;;;;;;;3.87;1.00;;;;;;;;;;4924757;29;20635;-73
2021/03/12 09:48:08;;;;;;;2.00;0.70;;;;;;;;;;4927086;29;20197;-73
2021/03/12 09:51:14;;;;;;;3.87;1.37;;;;;;;;;;4916171;29;20220;-73
2021/03/12 09:54:23;;;;;;;3.47;0.97;;;;;;;;;;4916187;29;20180;-73
2021/03/12 09:57:33;;;;;;;2.53;0.90;;;;;;;;;;4916444;29;20185;-73
2021/03/12 10:00:44;;;;;;;4.13;1.00;;;;;;;;;;4916321;29;20719;-73
2021/03/12 10:03:51;;;;;;;4.30;1.13;;;;;;;;;;4905252;29;20204;-73
2021/03/12 10:07:14;;;;;;;3.20;1.00;;;;;;;;;;4920314;29;20525;-74
2021/03/12 10:10:39;;;;;;;7.00;1.17;;;;;;;;;;4919901;29;20220;-73
2021/03/12 10:13:45;;;;;;;1.60;0.80;;;;;;;;;;4921004;29;20185;-74
2021/03/12 10:17:20;;;;;;;5.30;0.90;;;;;;;;;;4920696;29;20633;-74
2021/03/12 10:20:31;;;;;;;1.80;0.90;;;;;;;;;;4919933;29;20225;-73
2021/03/12 10:23:36;;;;;;;2.30;0.70;;;;;;;;;;4919684;29;20196;-73
2021/03/12 10:26:42;;;;;;;3.50;0.77;;;;;;;;;;4919735;29;20193;-73
2021/03/12 10:29:47;;;;;;;3.50;1.27;;;;;;;;;;4920520;29;20200;-73
2021/03/12 10:32:53;;;;;;;2.63;0.87;;;;;;;;;;4919554;29;20201;-73
2021/03/12 10:35:59;;;;;;;3.10;0.77;;;;;;;;;;4920879;29;20185;-73
2021/03/12 10:39:04;;;;;;;3.57;0.83;;;;;;;;;;4920320;29;20181;-73
2021/03/12 10:42:08;;;;;;;3.40;0.73;;;;;;;;;;4920376;29;20224;-73
2021/03/12 10:45:33;;;;;;;4.13;0.70;;;;;;;;;;4908833;29;20185;-73
2021/03/12 10:48:38;;;;;;;2.00;0.77;;;;;;;;;;4919612;29;20545;-73
2021/03/12 10:51:42;;;;;;;2.03;1.10;;;;;;;;;;4919210;29;20221;-73
2021/03/12 10:54:47;;;;;;;4.27;1.63;;;;;;;;;;4919460;29;20181;-73
2021/03/12 10:57:58;;;;;;;12.43;11.13;;;;;;;;;;4919415;29;20185;-73
2021/03/12 11:01:19;;;;;;;11.30;9.60;;;;;;;;;;4919848;29;20232;-73
2021/03/12 11:04:23;;;;;;;3.70;1.83;;;;;;;;;;4919313;29;20185;-74
2021/03/12 11:07:28;;;;;;;3.50;1.10;;;;;;;;;;4919780;29;20181;-74
2021/03/12 11:10:32;;;;;;;3.87;1.97;;;;;;;;;;4919040;29;20213;-73
2021/03/12 11:13:39;;;;;;;3.97;1.10;;;;;;;;;;4919112;29;20185;-73
2021/03/12 11:16:43;;;;;;;2.70;0.90;;;;;;;;;;4918295;29;20205;-73
2021/03/12 11:19:49;;;;;;;2.67;0.83;;;;;;;;;;4919477;29;20185;-73
2021/03/12 11:22:54;;;;;;;2.80;0.70;;;;;;;;;;4919679;29;20177;-73
2021/03/12 11:25:58;;;;;;;1.83;0.70;;;;;;;;;;4919759;29;20181;-74
2021/03/12 11:29:02;;;;;;;4.60;1.80;;;;;;;;;;4919652;29;20184;-73
2021/03/12 11:32:08;;;;;;;10.57;4.27;;;;;;;;;;4919307;29;20212;-74
2021/03/12 11:35:16;;;;;;;4.30;1.90;;;;;;;;;;4918715;29;20258;-73
2021/03/12 11:38:20;;;;;;;3.20;2.40;;;;;;;;;;4919225;29;20181;-73
2021/03/12 11:41:24;;;;;;;6.97;3.37;;;;;;;;;;4919256;29;20228;-74
2021/03/12 11:44:28;;;;;;;8.03;3.50;;;;;;;;;;4919463;29;20529;-73
2021/03/12 11:47:32;;;;;;;7.33;3.27;;;;;;;;;;4918409;29;20537;-73
2021/03/12 11:50:38;;;;;;;1.90;1.00;;;;;;;;;;4918869;29;20220;-73
2021/03/12 11:53:42;;;;;;;3.17;1.80;;;;;;;;;;4919321;29;20529;-74
2021/03/12 11:56:47;;;;;;;2.37;1.03;;;;;;;;;;4919105;29;20666;-73
2021/03/12 11:59:51;;;;;;;3.03;1.10;;;;;;;;;;4918956;29;20629;-73
2021/03/12 12:02:55;;;;;;;2.10;0.80;;;;;;;;;;4918189;29;20546;-73
2021/03/12 12:05:59;;;;;;;1.83;0.73;;;;;;;;;;4918717;29;20216;-73
2021/03/12 12:09:04;;;;;;;3.13;1.17;;;;;;;;;;4918711;29;20204;-73
2021/03/12 12:12:12;;;;;;;1.93;0.70;;;;;;;;;;4917682;29;20688;-74
2021/03/12 12:15:17;;;;;;;2.30;0.70;;;;;;;;;;4918743;29;20185;-74
2021/03/12 12:18:22;;;;;;;2.20;0.80;;;;;;;;;;4918452;29;20180;-73
2021/03/12 12:21:26;;;;;;;3.10;0.90;;;;;;;;;;4917530;29;20291;-73
2021/03/12 12:24:30;;;;;;;6.47;0.67;;;;;;;;;;4918337;29;20192;-73
2021/03/12 12:27:34;;;;;;;2.50;0.60;;;;;;;;;;4916449;29;20185;-73
2021/03/12 12:30:39;;;;;;;2.70;0.70;;;;;;;;;;4918055;29;20561;-72
2021/03/12 12:33:44;;;;;;;1.53;0.50;;;;;;;;;;4917406;29;20185;-73
2021/03/12 12:36:49;;;;;;;3.00;0.90;;;;;;;;;;4917842;29;20185;-73
2021/03/12 12:39:53;;;;;;;3.40;0.83;;;;;;;;;;4917902;29;20205;-73
2021/03/12 12:42:57;;;;;;;2.20;0.70;;;;;;;;;;4918158;29;20232;-73
2021/03/12 12:46:02;;;;;;;2.27;0.50;;;;;;;;;;4917891;29;20189;-74
2021/03/12 12:49:07;;;;;;;2.47;0.73;;;;;;;;;;4917510;29;20173;-73
2021/03/12 12:52:11;;;;;;;2.13;0.73;;;;;;;;;;4916979;29;20220;-73
2021/03/12 12:55:15;;;;;;;1.50;0.60;;;;;;;;;;4917843;29;20185;-73
2021/03/12 12:58:19;;;;;;;3.33;1.00;;;;;;;;;;4917740;29;20196;-73
2021/03/12 13:01:24;;;;;;;3.33;1.10;;;;;;;;;;4917712;29;20232;-73
2021/03/12 13:04:28;;;;;;;1.77;0.67;;;;;;;;;;4918529;29;20200;-72
2021/03/12 13:07:32;;;;;;;1.50;0.63;;;;;;;;;;4929604;29;20192;-73
2021/03/12 13:10:38;;;;;;;4.27;0.93;;;;;;;;;;4933727;29;20216;-72
2021/03/12 13:13:42;;;;;;;2.67;0.90;;;;;;;;;;4933237;29;20184;-72
2021/03/12 13:16:47;;;;;;;5.27;0.90;;;;;;;;;;4919284;29;20549;-72
2021/03/12 13:19:53;;;;;;;2.57;0.87;;;;;;;;;;4922959;29;20667;-74
2021/03/12 13:22:57;;;;;;;0.57;0.50;;;;;;;;;;4924682;29;20568;-75
2021/03/12 13:26:01;;;;;;;1.30;0.60;;;;;;;;;;4916823;29;20204;-74
2021/03/12 13:29:05;;;;;;;2.30;0.80;;;;;;;;;;4917569;29;20200;-75
2021/03/12 13:32:10;;;;;;;6.57;1.10;;;;;;;;;;4929183;29;20220;-74
2021/03/12 13:35:15;;;;;;;0.97;0.53;;;;;;;;;;4923839;29;20197;-74
2021/03/12 13:38:21;;;;;;;2.67;0.70;;;;;;;;;;4918534;29;20189;-73
2021/03/12 13:41:24;;;;;;;3.80;1.77;;;;;;;;;;4918292;29;20220;-72
2021/03/12 13:44:29;;;;;;;3.23;0.93;;;;;;;;;;4919976;29;20189;-73
2021/03/12 13:47:33;;;;;;;1.23;0.80;;;;;;;;;;4916975;29;20181;-73
2021/03/12 13:50:38;;;;;;;1.50;0.70;;;;;;;;;;4916996;29;20216;-73
2021/03/12 13:53:42;;;;;;;4.30;0.83;;;;;;;;;;4916767;29;20173;-73
2021/03/12 13:56:48;;;;;;;1.83;0.60;;;;;;;;;;4917182;29;20185;-73
2021/03/12 13:59:52;;;;;;;1.13;0.73;;;;;;;;;;4916314;29;20189;-74
2021/03/12 14:02:56;;;;;;;2.50;0.80;;;;;;;;;;4915964;29;20213;-73
2021/03/12 14:06:00;;;;;;;2.30;0.60;;;;;;;;;;4916916;29;20208;-73
2021/03/12 14:09:13;;;;;;;1.30;0.90;;;;;;;;;;4916084;29;20185;-74
2021/03/12 14:12:17;;;;;;;1.23;0.50;;;;;;;;;;4916278;29;20181;-74
2021/03/12 14:15:21;;;;;;;3.60;0.90;;;;;;;;;;4916742;29;20534;-73
2021/03/12 14:18:25;;;;;;;2.33;0.67;;;;;;;;;;4916883;29;20189;-73
2021/03/12 14:21:30;;;;;;;3.37;0.60;;;;;;;;;;4915813;29;20240;-73
2021/03/12 14:24:35;;;;;;;3.50;1.00;;;;;;;;;;4932083;29;20196;-73
2021/03/12 14:27:39;;;;;;;2.80;2.50;;;;;;;;;;4935671;29;20204;-73
2021/03/12 14:30:58;;;;;;;4.60;0.93;;;;;;;;;;4935689;29;20228;-74
2021/03/12 14:34:03;;;;;;;3.20;0.70;;;;;;;;;;4935511;29;20208;-74
2021/03/12 14:37:07;;;;;;;1.53;0.77;;;;;;;;;;4935789;29;20204;-75
2021/03/12 14:40:12;;;;;;;2.93;0.80;;;;;;;;;;4934611;29;20695;-74
2021/03/12 14:43:17;;;;;;;3.03;0.90;;;;;;;;;;4935636;29;20223;-73
2021/03/12 14:46:21;;;;;;;3.67;1.00;;;;;;;;;;4935835;29;20177;-74
2021/03/12 14:49:33;;;;;;;2.93;0.87;;;;;;;;;;4934777;29;20188;-74
2021/03/12 14:52:39;;;;;;;2.10;0.57;;;;;;;;;;4938141;29;20172;-74
2021/03/12 14:55:43;;;;;;;4.00;0.70;;;;;;;;;;4939114;29;20180;-74
2021/03/12 14:58:47;;;;;;;3.20;0.73;;;;;;;;;;4937681;29;20652;-73
2021/03/12 15:01:51;;;;;;;0.87;0.60;;;;;;;;;;4925601;29;20228;-74
2021/03/12 15:04:56;;;;;;;5.13;1.40;;;;;;;;;;4931091;29;20203;-74
2021/03/12 15:08:00;;;;;;;4.20;1.00;;;;;;;;;;4938779;29;20521;-74
2021/03/12 15:11:05;;;;;;;2.23;0.90;;;;;;;;;;4925823;29;20220;-74
2021/03/12 15:14:09;;;;;;;3.00;1.13;;;;;;;;;;4937222;29;20196;-74
2021/03/12 15:17:18;;;;;;;3.83;0.80;;;;;;;;;;4937849;29;20176;-74
2021/03/12 15:20:22;;;;;;;1.20;0.87;;;;;;;;;;4929257;29;20232;-75
2021/03/12 15:23:27;;;;;;;3.37;0.90;;;;;;;;;;4929688;29;20722;-74
2021/03/12 15:26:31;;;;;;;1.47;0.73;;;;;;;;;;4926612;29;20193;-74
2021/03/12 15:29:36;;;;;;;4.60;0.80;;;;;;;;;;4912433;29;20196;-74
2021/03/12 15:32:40;;;;;;;5.67;1.10;;;;;;;;;;4928777;29;20192;-74
2021/03/12 15:35:44;;;;;;;4.10;0.80;;;;;;;;;;4937743;29;20180;-74
2021/03/12 15:39:15;;;;;;;3.17;0.83;;;;;;;;;;4938226;29;20203;-74
2021/03/12 15:42:19;;;;;;;9.37;1.10;;;;;;;;;;4926784;29;20216;-74
2021/03/12 15:45:25;;;;;;;2.10;0.97;;;;;;;;;;4926675;29;20196;-73
2021/03/12 15:48:30;;;;;;;3.67;0.90;;;;;;;;;;4937728;29;20192;-74
2021/03/12 15:51:48;;;;;;;12.93;5.03;;;;;;;;;;4925546;29;20574;-73
2021/03/12 15:54:52;;;;;;;4.83;1.50;;;;;;;;;;4929721;29;20204;-74
2021/03/12 15:57:57;;;;;;;2.57;1.23;;;;;;;;;;4918359;29;20181;-74
2021/03/12 16:01:01;;;;;;;3.33;0.80;;;;;;;;;;4918178;29;20216;-74
2021/03/12 16:04:06;;;;;;;4.13;1.17;;;;;;;;;;4922790;29;20221;-74
2021/03/12 16:07:10;;;;;;;18.97;2.03;;;;;;;;;;4918299;29;20200;-73
2021/03/12 16:10:18;;;;;;;5.17;3.50;;;;;;;;;;4918035;29;20216;-74
2021/03/12 16:13:23;;;;;;;5.10;1.00;;;;;;;;;;4917743;29;20181;-73
2021/03/12 16:16:32;;;;;;;3.40;1.00;;;;;;;;;;4917686;29;20680;-73
2021/03/12 16:19:55;;;;;;;3.20;1.10;;;;;;;;;;4923707;29;20196;-73
2021/03/12 16:23:17;;;;;;;2.83;1.20;;;;;;;;;;4925390;29;20567;-74
2021/03/12 16:26:49;;;;;;;3.57;1.10;;;;;;;;;;4936769;29;20176;-74
2021/03/12 16:29:59;;;;;;;5.43;1.47;;;;;;;;;;4926273;29;20208;-73
2021/03/12 16:33:04;;;;;;;3.20;1.00;;;;;;;;;;4936551;29;20196;-74
2021/03/12 16:36:16;;;;;;;4.70;1.77;;;;;;;;;;4930057;29;20193;-73
2021/03/12 16:39:21;;;;;;;4.57;2.40;;;;;;;;;;4917296;29;20181;-74
2021/03/12 16:42:33;;;;;;;4.70;1.87;;;;;;;;;;4896727;29;20217;-74
2021/03/12 16:45:37;;;;;;;1.93;1.27;;;;;;;;;;4925603;29;20184;-74
2021/03/12 16:48:42;;;;;;;4.50;2.83;;;;;;;;;;4936979;29;20184;-74
2021/03/12 16:51:46;;;;;;;2.37;1.80;;;;;;;;;;4925011;29;20700;-74
2021/03/12 16:54:50;;;;;;;11.07;6.17;;;;;;;;;;4927707;29;20188;-73
2021/03/12 16:57:55;;;;;;;14.67;13.23;;;;;;;;;;4917220;29;20189;-74
2021/03/12 17:00:59;;;;;;;8.13;4.03;;;;;;;;;;4917627;29;20229;-74
2021/03/12 17:04:04;;;;;;;22.17;8.23;;;;;;;;;;4930529;29;20220;-73
2021/03/12 17:07:08;;;;;;;21.87;8.07;;;;;;;;;;4920118;29;20640;-73
2021/03/12 17:10:13;;;;;;;35.37;14.70;;;;;;;;;;4924989;29;20223;-74
2021/03/12 17:13:17;;;;;;;76.50;36.10;;;;;;;;;;4935400;29;20180;-74
2021/03/12 17:16:21;;;;;;;148.67;65.33;;;;;;;;;;4936342;29;20206;-74
2021/03/12 17:19:25;;;;;;;343.50;134.33;;;;;;;;;;4932305;29;20207;-73
2021/03/12 17:22:29;;;;;;;298.33;115.73;;;;;;;;;;4917528;29;20224;-73
2021/03/12 17:25:34;;;;;;;133.37;54.77;;;;;;;;;;4929589;29;20207;-74
2021/03/12 17:28:38;;;;;;;27.27;11.00;;;;;;;;;;4936351;29;20650;-74
2021/03/12 17:31:43;;;;;;;5.67;3.10;;;;;;;;;;4926659;29;20580;-73
2021/03/12 17:34:47;;;;;;;4.53;1.70;;;;;;;;;;4923702;29;20184;-73
2021/03/12 17:37:51;;;;;;;5.17;1.60;;;;;;;;;;4920362;29;20200;-74
2021/03/12 17:40:55;;;;;;;4.50;1.43;;;;;;;;;;4917214;29;20216;-73
2021/03/12 17:43:59;;;;;;;2.87;1.37;;;;;;;;;;4916414;29;20545;-74
2021/03/12 17:47:04;;;;;;;2.47;1.20;;;;;;;;;;4924195;29;20196;-73
2021/03/12 17:50:08;;;;;;;2.50;1.00;;;;;;;;;;4925598;29;20232;-74
2021/03/12 17:53:12;;;;;;;5.50;1.47;;;;;;;;;;4928814;29;20184;-73
2021/03/12 17:56:16;;;;;;;2.80;1.20;;;;;;;;;;4934887;29;20551;-74
2021/03/12 17:59:21;;;;;;;2.50;0.90;;;;;;;;;;4925773;29;20192;-74
2021/03/12 18:02:25;;;;;;;4.63;1.00;;;;;;;;;;4935673;29;20180;-74
2021/03/12 18:05:29;;;;;;;4.37;1.30;;;;;;;;;;4928975;29;20212;-73
2021/03/12 18:08:33;;;;;;;7.43;1.30;;;;;;;;;;4917073;29;20184;-73
2021/03/12 18:11:37;;;;;;;2.43;1.17;;;;;;;;;;4916275;29;20224;-74
2021/03/12 18:14:41;;;;;;;3.70;1.30;;;;;;;;;;4916832;29;20192;-74
2021/03/12 18:17:45;;;;;;;3.47;1.20;;;;;;;;;;4915930;29;20205;-72
2021/03/12 18:20:55;;;;;;;1.83;0.90;;;;;;;;;;4918111;29;20216;-72
2021/03/12 18:24:00;;;;;;;4.10;1.27;;;;;;;;;;4916536;29;20221;-72
2021/03/12 18:27:06;;;;;;;3.37;0.80;;;;;;;;;;4933563;29;20226;-73
2021/03/12 18:30:12;;;;;;;3.80;1.10;;;;;;;;;;4920568;29;20224;-72
2021/03/12 18:33:16;;;;;;;1.17;0.80;;;;;;;;;;4932889;29;20189;-73
2021/03/12 18:36:20;;;;;;;1.63;0.80;;;;;;;;;;4929834;29;20200;-72
2021/03/12 18:39:24;;;;;;;3.10;1.10;;;;;;;;;;4920405;29;20200;-73
2021/03/12 18:42:29;;;;;;;3.67;0.93;;;;;;;;;;4922611;29;20204;-72
2021/03/12 18:45:33;;;;;;;3.23;1.20;;;;;;;;;;4928232;29;20196;-72
2021/03/12 18:48:37;;;;;;;2.07;0.70;;;;;;;;;;4939109;29;20200;-73
2021/03/12 18:51:42;;;;;;;2.70;1.10;;;;;;;;;;4927347;29;20225;-72
2021/03/12 18:54:46;;;;;;;3.30;1.10;;;;;;;;;;4919115;29;20192;-72
2021/03/12 18:57:50;;;;;;;2.40;1.00;;;;;;;;;;4938055;29;20203;-71
2021/03/12 19:00:54;;;;;;;4.60;1.30;;;;;;;;;;4920134;29;20220;-72
2021/03/12 19:03:58;;;;;;;3.77;1.17;;;;;;;;;;4919312;29;20228;-72
2021/03/12 19:07:07;;;;;;;4.07;1.33;;;;;;;;;;4930772;29;20215;-72